AQO weather

Public forecast

Using degrees Fahrenheit for public forecast. Weather courtesy of forecast.io.

Current aviation weather report (METAR) for Llano Municipal Airport

Retrieved 2020/08/14 02:15 UTC (0 seconds ago):

KAQO 140215Z AUTO 16007KT 10SM FEW042 FEW050 34/14 A2989 RMK AO2

Closest aviation forecast (TAF) to Llano Municipal Airport

Closest forecast is Curtis Field, 41.5 nm (76.9 km) NW. Retrieved 2020-08-14 00:30 UTC (2 hours ago):

TAF KBBD 132328Z 1400/1424 16010G16KT P6SM SKC FM140100 16008KT P6SM SKC FM141500 20011G18KT P6SM SKC